createdAt,value
2019-02-27T00:00:36.989Z,0
2019-02-27T00:01:38.379Z,0
2019-02-27T00:02:39.916Z,0
2019-02-27T00:03:41.315Z,0
2019-02-27T00:04:43.087Z,0
2019-02-27T00:05:44.651Z,0
2019-02-27T00:06:47.670Z,0
2019-02-27T00:07:47.399Z,0
2019-02-27T00:08:48.970Z,0
2019-02-27T00:09:50.363Z,0
2019-02-27T00:10:52.232Z,0
2019-02-27T00:11:53.630Z,0
2019-02-27T00:12:55.299Z,0
2019-02-27T00:13:57.996Z,0
2019-02-27T00:14:58.349Z,0
2019-02-27T00:15:59.744Z,0
2019-02-27T00:17:01.403Z,0
2019-02-27T00:18:03.918Z,0
2019-02-27T00:19:05.308Z,0
2019-02-27T00:20:06.930Z,0
2019-02-27T00:21:10.498Z,0
2019-02-27T00:22:10.059Z,0
2019-02-27T00:23:11.594Z,0
2019-02-27T00:24:13.010Z,0
2019-02-27T00:25:14.517Z,0
2019-02-27T00:26:15.910Z,0
2019-02-27T00:27:17.321Z,0
2019-02-27T00:28:23.080Z,0
2019-02-27T00:29:20.177Z,0
2019-02-27T00:30:21.576Z,0
2019-02-27T00:31:23.117Z,0
2019-02-27T00:32:24.889Z,0
2019-02-27T00:33:28.443Z,0
2019-02-27T00:34:27.848Z,0
2019-02-27T00:35:29.243Z,0
2019-02-27T00:36:30.661Z,0
2019-02-27T00:37:32.235Z,0
2019-02-27T00:38:33.584Z,0
2019-02-27T00:39:34.961Z,0
2019-02-27T00:40:39.302Z,0
2019-02-27T00:41:38.274Z,0
2019-02-27T00:42:39.668Z,0
2019-02-27T00:43:41.237Z,0
2019-02-27T00:44:42.616Z,0
2019-02-27T00:45:44.480Z,0
2019-02-27T00:46:46.460Z,0
2019-02-27T00:47:47.230Z,0
2019-02-27T00:48:48.835Z,0
2019-02-27T00:49:50.229Z,0
2019-02-27T00:50:51.623Z,0
2019-02-27T00:51:53.159Z,0
2019-02-27T00:52:54.587Z,0
2019-02-27T00:53:58.279Z,0
2019-02-27T00:54:57.500Z,0
2019-02-27T00:55:58.891Z,0
2019-02-27T00:57:00.289Z,0
2019-02-27T00:58:01.803Z,0
2019-02-27T00:59:03.210Z,0
2019-02-27T01:00:06.623Z,0
2019-02-27T01:01:06.039Z,0
2019-02-27T01:02:07.702Z,0
2019-02-27T01:03:09.088Z,0
2019-02-27T01:04:10.646Z,0
2019-02-27T01:05:12.465Z,0
2019-02-27T01:06:14.822Z,0
2019-02-27T01:07:20.246Z,0
2019-02-27T01:08:16.829Z,0
2019-02-27T01:09:18.221Z,0
2019-02-27T01:10:20.078Z,0
2019-02-27T01:11:21.470Z,0
2019-02-27T01:12:25.237Z,0
2019-02-27T01:13:24.736Z,0
2019-02-27T01:14:26.276Z,0
2019-02-27T01:15:27.671Z,0
2019-02-27T01:16:29.160Z,0
2019-02-27T01:17:30.560Z,0
2019-02-27T01:18:32.042Z,0
2019-02-27T01:19:35.851Z,0
2019-02-27T01:20:34.921Z,0
2019-02-27T01:21:36.315Z,0
2019-02-27T01:22:37.822Z,0
2019-02-27T01:23:41.644Z,0
2019-02-27T01:24:40.711Z,0
2019-02-27T01:25:42.177Z,0
2019-02-27T01:26:43.770Z,0
2019-02-27T01:27:45.164Z,0
2019-02-27T01:28:46.577Z,0
2019-02-27T01:29:50.884Z,0
2019-02-27T01:30:49.308Z,0
2019-02-27T01:31:51.154Z,0
2019-02-27T01:32:52.544Z,0
2019-02-27T01:33:53.950Z,0
2019-02-27T01:34:55.501Z,0
2019-02-27T01:35:56.892Z,0
2019-02-27T01:36:58.609Z,0
2019-02-27T01:37:59.824Z,0
2019-02-27T01:39:01.215Z,0
2019-02-27T01:40:02.615Z,0
2019-02-27T01:41:04.560Z,0
2019-02-27T01:42:05.963Z,0
2019-02-27T01:43:07.354Z,0
2019-02-27T01:44:11.151Z,0
2019-02-27T01:45:10.233Z,0
2019-02-27T01:46:11.626Z,0
2019-02-27T01:47:13.193Z,0
2019-02-27T01:48:14.587Z,0
2019-02-27T01:49:16.744Z,0
2019-02-27T01:50:19.964Z,0
2019-02-27T01:51:19.362Z,0
2019-02-27T01:52:20.762Z,0
2019-02-27T01:53:22.632Z,0
2019-02-27T01:54:24.027Z,0
2019-02-27T01:55:25.539Z,0
2019-02-27T01:56:28.910Z,0
2019-02-27T01:57:29.109Z,0
2019-02-27T01:58:30.500Z,0
2019-02-27T01:59:32.503Z,0
2019-02-27T02:00:34.661Z,0
2019-02-27T02:01:36.235Z,0
2019-02-27T02:02:40.418Z,0
2019-02-27T02:03:39.520Z,0
2019-02-27T02:04:40.913Z,0
2019-02-27T02:05:42.394Z,0
2019-02-27T02:06:43.790Z,0
2019-02-27T02:07:45.280Z,0
2019-02-27T02:08:48.239Z,0
2019-02-27T02:09:48.039Z,0
2019-02-27T02:10:49.616Z,0
2019-02-27T02:11:51.017Z,0
2019-02-27T02:12:52.780Z,0
2019-02-27T02:13:54.343Z,0
2019-02-27T02:14:56.135Z,0
2019-02-27T02:15:58.117Z,0
2019-02-27T02:16:59.002Z,0
2019-02-27T02:18:00.603Z,0
2019-02-27T02:19:01.999Z,0
2019-02-27T02:20:03.596Z,0
2019-02-27T02:21:05.378Z,0
2019-02-27T02:22:08.909Z,0
2019-02-27T02:23:08.249Z,0
2019-02-27T02:24:09.755Z,0
2019-02-27T02:25:11.105Z,0
2019-02-27T02:26:12.652Z,0
2019-02-27T02:27:14.036Z,0
2019-02-27T02:28:15.543Z,0
2019-02-27T02:29:17.938Z,0
2019-02-27T02:30:18.404Z,0
2019-02-27T02:31:19.803Z,0
2019-02-27T02:32:21.283Z,0
2019-02-27T02:33:28.666Z,0
2019-02-27T02:34:24.275Z,0
2019-02-27T02:35:25.670Z,0
2019-02-27T02:36:27.247Z,0
2019-02-27T02:37:28.644Z,0
2019-02-27T02:38:30.174Z,0
2019-02-27T02:39:31.576Z,0
2019-02-27T02:40:33.010Z,0
2019-02-27T02:41:34.439Z,0
2019-02-27T02:42:35.889Z,0
2019-02-27T02:43:40.510Z,0
2019-02-27T02:44:39.202Z,0
2019-02-27T02:45:40.594Z,0
2019-02-27T02:46:45.330Z,0
2019-02-27T02:47:43.800Z,0
2019-02-27T02:48:45.359Z,0
2019-02-27T02:49:46.797Z,0
2019-02-27T02:50:53.991Z,0
2019-02-27T02:51:49.599Z,0
2019-02-27T02:52:51.123Z,0
2019-02-27T02:53:52.521Z,0
2019-02-27T02:54:54.022Z,0
2019-02-27T02:55:55.762Z,0
2019-02-27T02:57:00.549Z,0
2019-02-27T02:57:58.648Z,0
2019-02-27T02:59:00.057Z,0
2019-02-27T03:00:01.851Z,0
2019-02-27T03:01:02.973Z,0
2019-02-27T03:02:04.360Z,0
2019-02-27T03:03:05.929Z,0
2019-02-27T03:04:12.520Z,0
2019-02-27T03:05:08.686Z,0
2019-02-27T03:06:10.250Z,0
2019-02-27T03:07:11.814Z,0
2019-02-27T03:08:19.725Z,0
2019-02-27T03:09:14.986Z,0
2019-02-27T03:10:16.372Z,0
2019-02-27T03:11:19.036Z,0
2019-02-27T03:12:19.117Z,0
2019-02-27T03:13:20.520Z,0
2019-02-27T03:14:22.461Z,0
2019-02-27T03:15:28.417Z,0
2019-02-27T03:16:25.212Z,0
2019-02-27T03:17:26.723Z,0
2019-02-27T03:18:29.480Z,0
2019-02-27T03:19:29.504Z,0
2019-02-27T03:20:31.415Z,0
2019-02-27T03:21:32.813Z,0
2019-02-27T03:22:40.483Z,0
2019-02-27T03:23:35.687Z,0
2019-02-27T03:24:37.205Z,0
2019-02-27T03:25:40.661Z,0
2019-02-27T03:26:40.084Z,0
2019-02-27T03:27:41.479Z,0
2019-02-27T03:28:42.965Z,0
2019-02-27T03:29:44.367Z,0
2019-02-27T03:30:45.899Z,0
2019-02-27T03:31:57.897Z,0
2019-02-27T03:34:09.037Z,0
2019-02-27T03:35:09.988Z,0
2019-02-27T03:36:31.643Z,0
2019-02-27T03:37:33.043Z,0
2019-02-27T03:38:55.916Z,0
2019-02-27T03:39:56.307Z,0
2019-02-27T03:40:57.794Z,0
2019-02-27T03:41:59.652Z,0
2019-02-27T03:43:01.089Z,0
2019-02-27T03:44:02.480Z,0
2019-02-27T03:45:03.886Z,0
2019-02-27T03:46:06.330Z,0
2019-02-27T03:47:06.775Z,0
2019-02-27T03:48:08.166Z,0
2019-02-27T03:49:09.724Z,0
2019-02-27T03:50:14.643Z,0
2019-02-27T03:51:12.478Z,0
2019-02-27T03:52:14.051Z,0
2019-02-27T03:53:15.441Z,0
2019-02-27T03:54:20.630Z,0
2019-02-27T03:55:18.777Z,0
2019-02-27T03:56:20.169Z,0
2019-02-27T03:57:21.659Z,0
2019-02-27T03:58:23.063Z,0
2019-02-27T03:59:24.918Z,0
2019-02-27T04:00:26.337Z,0
2019-02-27T04:01:30.486Z,0
2019-02-27T04:02:29.206Z,0
2019-02-27T04:03:30.713Z,0
2019-02-27T04:04:32.116Z,0
2019-02-27T04:05:33.510Z,0
2019-02-27T04:06:35.034Z,0
2019-02-27T04:07:36.432Z,0
2019-02-27T04:08:43.627Z,0
2019-02-27T04:09:39.359Z,0
2019-02-27T04:10:40.745Z,0
2019-02-27T04:11:42.827Z,0
2019-02-27T04:12:43.676Z,0
2019-02-27T04:13:45.070Z,0
2019-02-27T04:14:46.461Z,0
2019-02-27T04:15:53.332Z,0
2019-02-27T04:16:49.352Z,0
2019-02-27T04:17:52.205Z,0
2019-02-27T04:18:52.318Z,0
2019-02-27T04:19:53.717Z,0
2019-02-27T04:20:55.112Z,0
2019-02-27T04:22:00.625Z,0
2019-02-27T04:22:58.393Z,0
2019-02-27T04:23:59.956Z,0
2019-02-27T04:25:01.342Z,0
2019-02-27T04:26:05.331Z,0
2019-02-27T04:27:04.181Z,0
2019-02-27T04:28:05.694Z,0
2019-02-27T04:29:08.495Z,0
2019-02-27T04:30:08.441Z,0
2019-02-27T04:31:10.015Z,0
2019-02-27T04:32:12.395Z,0
2019-02-27T04:33:12.756Z,0
2019-02-27T04:34:14.334Z,0
2019-02-27T04:35:15.730Z,0
2019-02-27T04:36:17.145Z,0
2019-02-27T04:37:20.406Z,0
2019-02-27T04:38:20.062Z,0
2019-02-27T04:39:21.592Z,0
2019-02-27T04:40:22.986Z,0
2019-02-27T04:41:24.376Z,0
2019-02-27T04:42:26.518Z,0
2019-02-27T04:43:31.911Z,0
2019-02-27T04:44:28.993Z,0
2019-02-27T04:45:30.658Z,0
2019-02-27T04:46:32.049Z,0
2019-02-27T04:47:34.106Z,0
2019-02-27T04:48:36.155Z,0
2019-02-27T04:49:38.396Z,0
2019-02-27T04:50:41.703Z,0
2019-02-27T04:51:41.587Z,0
2019-02-27T04:52:42.967Z,0
2019-02-27T04:53:44.357Z,0
2019-02-27T04:54:45.814Z,0
2019-02-27T04:55:47.971Z,0
2019-02-27T04:56:49.064Z,0
2019-02-27T04:57:50.456Z,0
2019-02-27T04:58:51.977Z,0
2019-02-27T04:59:53.371Z,0
2019-02-27T05:00:58.853Z,0
2019-02-27T05:01:56.301Z,0
2019-02-27T05:02:57.695Z,0
2019-02-27T05:04:01.365Z,0
2019-02-27T05:05:00.621Z,0
2019-02-27T05:06:02.013Z,0
2019-02-27T05:07:03.501Z,0
2019-02-27T05:08:05.267Z,0
2019-02-27T05:09:06.791Z,0
2019-02-27T05:10:08.195Z,0
2019-02-27T05:11:14.000Z,0
2019-02-27T05:12:11.214Z,0
2019-02-27T05:13:12.985Z,0
2019-02-27T05:14:14.376Z,0
2019-02-27T05:15:15.844Z,0
2019-02-27T05:16:17.240Z,0
2019-02-27T05:17:21.218Z,0
2019-02-27T05:18:20.164Z,0
2019-02-27T05:19:22.326Z,0
2019-02-27T05:20:23.714Z,0
2019-02-27T05:21:25.305Z,0
2019-02-27T05:22:26.787Z,0
2019-02-27T05:23:28.186Z,0
2019-02-27T05:24:29.578Z,0
2019-02-27T05:25:30.968Z,0
2019-02-27T05:26:32.507Z,0
2019-02-27T05:27:33.914Z,0
2019-02-27T05:28:35.611Z,0
2019-02-27T05:29:37.576Z,0
2019-02-27T05:30:38.207Z,0
2019-02-27T05:31:39.599Z,0
2019-02-27T05:32:41.262Z,0
2019-02-27T05:33:42.658Z,0
2019-02-27T05:34:49.414Z,0
2019-02-27T05:35:45.850Z,0
2019-02-27T05:36:47.239Z,0
2019-02-27T05:37:48.628Z,0
2019-02-27T05:38:50.202Z,0
2019-02-27T05:39:51.780Z,0
2019-02-27T05:40:52.950Z,0
2019-02-27T05:41:54.624Z,0
2019-02-27T05:42:56.016Z,0
2019-02-27T05:43:57.425Z,0
2019-02-27T05:44:58.948Z,0
2019-02-27T05:46:02.778Z,0
2019-02-27T05:47:01.718Z,0
2019-02-27T05:48:03.270Z,0
2019-02-27T05:49:04.660Z,0
2019-02-27T05:50:06.665Z,0
2019-02-27T05:51:08.341Z,0
2019-02-27T05:52:11.879Z,0
2019-02-27T05:53:11.086Z,0
2019-02-27T05:54:12.480Z,0
2019-02-27T05:55:13.874Z,0
2019-02-27T05:56:16.329Z,4
2019-02-27T05:57:16.768Z,4
2019-02-27T05:58:18.155Z,0
2019-02-27T05:59:19.740Z,4
2019-02-27T06:00:21.133Z,4
2019-02-27T06:01:22.525Z,4
2019-02-27T06:02:25.470Z,4
2019-02-27T06:03:25.418Z,4
2019-02-27T06:04:26.930Z,4
2019-02-27T06:05:28.320Z,4
2019-02-27T06:06:30.020Z,8
2019-02-27T06:07:31.411Z,8
2019-02-27T06:08:34.857Z,8
2019-02-27T06:09:34.490Z,12
2019-02-27T06:10:36.367Z,16
2019-02-27T06:11:37.758Z,16
2019-02-27T06:12:40.886Z,16
2019-02-27T06:13:40.713Z,24
2019-02-27T06:14:42.107Z,24
2019-02-27T06:15:43.500Z,24
2019-02-27T06:16:45.033Z,32
2019-02-27T06:17:48.778Z,32
2019-02-27T06:18:47.917Z,36
2019-02-27T06:19:49.309Z,40
2019-02-27T06:20:51.002Z,44
2019-02-27T06:21:56.037Z,48
2019-02-27T06:22:53.895Z,52
2019-02-27T06:23:55.289Z,56
2019-02-27T06:24:56.970Z,60
2019-02-27T06:25:59.573Z,68
2019-02-27T06:26:59.721Z,72
2019-02-27T06:28:01.292Z,80
2019-02-27T06:29:02.727Z,84
2019-02-27T06:30:04.078Z,88
2019-02-27T06:31:05.613Z,96
2019-02-27T06:32:07.005Z,100
2019-02-27T06:33:11.613Z,108
2019-02-27T06:34:09.934Z,112
2019-02-27T06:35:11.720Z,120
2019-02-27T06:36:13.120Z,124
2019-02-27T06:37:15.608Z,128
2019-02-27T06:38:16.035Z,136
2019-02-27T06:39:17.551Z,140
2019-02-27T06:40:18.948Z,148
2019-02-27T06:41:20.659Z,156
2019-02-27T06:42:22.067Z,160
2019-02-27T06:43:27.148Z,168
2019-02-27T06:44:24.958Z,172
2019-02-27T06:45:26.356Z,176
2019-02-27T06:46:27.746Z,184
2019-02-27T06:47:29.275Z,188
2019-02-27T06:48:30.671Z,192
2019-02-27T06:49:32.364Z,200
2019-02-27T06:50:33.758Z,204
2019-02-27T06:51:35.892Z,212
2019-02-27T06:52:36.808Z,220
2019-02-27T06:53:38.328Z,224
2019-02-27T06:54:39.724Z,228
2019-02-27T06:55:41.442Z,236
2019-02-27T06:56:42.837Z,240
2019-02-27T06:57:44.231Z,244
2019-02-27T06:58:47.536Z,248
2019-02-27T06:59:47.330Z,256
2019-02-27T07:00:48.721Z,260
2019-02-27T07:01:50.268Z,268
2019-02-27T07:02:55.152Z,268
2019-02-27T07:03:53.431Z,280
2019-02-27T07:04:54.997Z,284
2019-02-27T07:05:56.399Z,288
2019-02-27T07:06:57.790Z,288
2019-02-27T07:07:59.326Z,292
2019-02-27T07:09:00.737Z,296
2019-02-27T07:10:02.415Z,304
2019-02-27T07:11:10.835Z,308
2019-02-27T07:12:07.028Z,316
2019-02-27T07:13:06.657Z,320
2019-02-27T07:14:08.369Z,324
2019-02-27T07:15:10.248Z,328
2019-02-27T07:16:11.626Z,336
2019-02-27T07:17:13.019Z,348
2019-02-27T07:18:14.417Z,356
2019-02-27T07:19:16.411Z,372
2019-02-27T07:20:17.732Z,396
2019-02-27T07:21:19.125Z,388
2019-02-27T07:22:20.707Z,376
2019-02-27T07:23:23.617Z,388
2019-02-27T07:24:23.591Z,400
2019-02-27T07:25:24.985Z,400
2019-02-27T07:26:26.682Z,400
2019-02-27T07:27:28.336Z,408
2019-02-27T07:28:29.433Z,436
2019-02-27T07:29:30.896Z,472
2019-02-27T07:30:32.290Z,476
2019-02-27T07:31:33.687Z,484
2019-02-27T07:32:35.329Z,476
2019-02-27T07:33:37.980Z,460
2019-02-27T07:34:38.199Z,456
2019-02-27T07:35:39.599Z,456
2019-02-27T07:36:41.287Z,468
2019-02-27T07:37:47.013Z,448
2019-02-27T07:38:44.452Z,436
2019-02-27T07:39:46.016Z,448
2019-02-27T07:40:47.426Z,472
2019-02-27T07:41:48.822Z,468
2019-02-27T07:42:50.339Z,464
2019-02-27T07:43:51.731Z,488
2019-02-27T07:44:53.133Z,512
2019-02-27T07:45:54.658Z,488
2019-02-27T07:46:57.481Z,472
2019-02-27T07:47:57.413Z,460
2019-02-27T07:48:58.981Z,460
2019-02-27T07:50:02.663Z,464
2019-02-27T07:51:02.064Z,460
2019-02-27T07:52:03.464Z,464
2019-02-27T07:53:04.866Z,464
2019-02-27T07:54:06.389Z,464
2019-02-27T07:55:18.619Z,468
2019-02-27T07:56:09.518Z,476
2019-02-27T07:57:11.123Z,492
2019-02-27T07:58:12.520Z,512
2019-02-27T07:59:14.876Z,532
2019-02-27T08:00:16.283Z,516
2019-02-27T08:01:17.905Z,496
2019-02-27T08:02:19.299Z,496
2019-02-27T08:03:20.697Z,492
2019-02-27T08:04:23.026Z,488
2019-02-27T08:05:28.311Z,492
2019-02-27T08:06:24.943Z,492
2019-02-27T08:07:26.548Z,504
2019-02-27T08:08:27.944Z,512
2019-02-27T08:09:30.254Z,512
2019-02-27T08:10:30.910Z,512
2019-02-27T08:11:32.319Z,520
2019-02-27T08:12:33.702Z,528
2019-02-27T08:13:35.403Z,540
2019-02-27T08:14:37.246Z,564
2019-02-27T08:15:38.284Z,584
2019-02-27T08:16:39.691Z,596
2019-02-27T08:17:41.115Z,604
2019-02-27T08:18:42.803Z,616
2019-02-27T08:19:45.262Z,628
2019-02-27T08:20:45.584Z,624
2019-02-27T08:21:47.127Z,640
2019-02-27T08:22:49.562Z,652
2019-02-27T08:23:49.880Z,628
2019-02-27T08:24:51.452Z,636
2019-02-27T08:25:53.227Z,664
2019-02-27T08:26:54.752Z,668
2019-02-27T08:27:56.144Z,664
2019-02-27T08:28:57.539Z,720
2019-02-27T08:29:59.840Z,708
2019-02-27T08:31:00.315Z,636
2019-02-27T08:32:01.804Z,680
2019-02-27T08:33:03.395Z,728
2019-02-27T08:34:04.788Z,676
2019-02-27T08:35:06.463Z,700
2019-02-27T08:36:07.857Z,752
2019-02-27T08:37:09.594Z,880
2019-02-27T08:38:10.991Z,1220
2019-02-27T08:39:12.392Z,1360
2019-02-27T08:40:14.079Z,1192
2019-02-27T08:41:15.477Z,964
2019-02-27T08:42:16.873Z,912
2019-02-27T08:43:18.395Z,792
2019-02-27T08:44:19.796Z,808
2019-02-27T08:45:21.512Z,924
2019-02-27T08:46:22.915Z,1016
2019-02-27T08:47:24.574Z,1032
2019-02-27T08:48:25.977Z,992
2019-02-27T08:49:27.363Z,876
2019-02-27T08:50:29.296Z,908
2019-02-27T08:51:30.259Z,1104
2019-02-27T08:52:31.652Z,1464
2019-02-27T08:53:34.502Z,1488
2019-02-27T08:54:34.857Z,1336
2019-02-27T08:55:38.967Z,1820
2019-02-27T08:56:37.868Z,2288
2019-02-27T08:57:39.389Z,2480
2019-02-27T08:58:40.909Z,2332
2019-02-27T08:59:42.475Z,2592
2019-02-27T09:00:47.144Z,3088
2019-02-27T09:01:45.800Z,2692
2019-02-27T09:02:47.196Z,2092
2019-02-27T09:03:48.852Z,2524
2019-02-27T09:04:50.257Z,3532
2019-02-27T09:05:53.718Z,3300
2019-02-27T09:06:53.383Z,2776
2019-02-27T09:07:55.023Z,3036
2019-02-27T09:08:56.469Z,3224
2019-02-27T09:09:57.876Z,3016
2019-02-27T09:11:05.548Z,3408
2019-02-27T09:12:03.058Z,3644
2019-02-27T09:13:05.387Z,3052
2019-02-27T09:14:03.870Z,3016
2019-02-27T09:15:05.579Z,4452
2019-02-27T09:16:07.163Z,6300
2019-02-27T09:17:08.558Z,7648
2019-02-27T09:18:10.247Z,8500
